createdAt,value
2023-02-12T00:01:34.519Z,76.88
2023-02-12T00:04:02.767Z,77.15
2023-02-12T00:06:30.808Z,77.36
2023-02-12T00:08:59.515Z,78.60
2023-02-12T00:11:30.392Z,77.51
2023-02-12T00:13:59.876Z,77.94
2023-02-12T00:16:30.095Z,77.49
2023-02-12T00:18:59.934Z,76.95
2023-02-12T00:21:30.023Z,77.66
2023-02-12T00:23:58.569Z,78.34
2023-02-12T00:26:26.759Z,78.54
2023-02-12T00:28:55.711Z,77.10
2023-02-12T00:31:28.131Z,77.20
2023-02-12T00:33:56.850Z,75.07
2023-02-12T00:36:28.811Z,74.97
2023-02-12T00:38:57.934Z,73.52
2023-02-12T00:41:27.337Z,75.44
2023-02-12T00:43:55.603Z,74.28
2023-02-12T00:46:25.188Z,73.54
2023-02-12T00:48:53.256Z,74.41
2023-02-12T00:51:21.470Z,74.19
2023-02-12T00:53:49.483Z,72.51
2023-02-12T00:56:17.410Z,73.14
2023-02-12T00:58:45.283Z,71.75
2023-02-12T01:01:13.368Z,73.30
2023-02-12T01:03:42.744Z,71.70
2023-02-12T01:06:10.930Z,71.01
2023-02-12T01:08:38.925Z,73.18
2023-02-12T01:11:07.840Z,73.99
2023-02-12T01:13:36.751Z,72.18
2023-02-12T01:16:09.459Z,73.11
2023-02-12T01:18:40.799Z,72.83
2023-02-12T01:21:16.823Z,70.60
2023-02-12T01:23:45.621Z,71.93
2023-02-12T01:26:15.539Z,72.07
2023-02-12T01:28:46.259Z,71.92
2023-02-12T01:31:18.352Z,73.33
2023-02-12T01:33:49.828Z,73.10
2023-02-12T01:36:19.539Z,73.27
2023-02-12T01:38:47.489Z,74.55
2023-02-12T01:41:19.158Z,74.45
2023-02-12T01:44:06.545Z,75.67
2023-02-12T01:46:34.726Z,74.92
2023-02-12T01:49:06.238Z,74.74
2023-02-12T01:51:37.547Z,75.47
2023-02-12T01:54:11.672Z,75.72
2023-02-12T01:56:43.765Z,76.85
2023-02-12T01:59:13.451Z,76.09
2023-02-12T02:01:41.561Z,75.73
2023-02-12T02:04:15.528Z,74.61
2023-02-12T02:06:51.881Z,76.04
2023-02-12T02:09:21.462Z,77.82
2023-02-12T02:12:07.167Z,77.18
2023-02-12T02:14:35.457Z,77.97
2023-02-12T02:17:29.534Z,77.94
2023-02-12T02:20:56.246Z,77.53
2023-02-12T02:24:00.280Z,77.85
2023-02-12T02:27:10.117Z,78.73
2023-02-12T02:30:30.784Z,78.04
2023-02-12T02:33:13.766Z,78.12
2023-02-12T02:35:50.354Z,76.67
2023-02-12T02:38:28.037Z,76.84
2023-02-12T02:41:06.765Z,76.73
2023-02-12T02:43:43.740Z,77.18
2023-02-12T02:46:21.262Z,77.15
2023-02-12T02:48:54.488Z,77.54
2023-02-12T02:51:30.295Z,78.33
2023-02-12T02:54:08.999Z,78.22
2023-02-12T02:56:45.203Z,77.82
2023-02-12T02:59:21.935Z,78.83
2023-02-12T03:02:00.231Z,79.32
2023-02-12T03:04:36.351Z,76.48
2023-02-12T03:07:11.503Z,75.21
2023-02-12T03:09:46.703Z,74.26
2023-02-12T03:12:32.600Z,74.01
2023-02-12T03:15:09.756Z,74.29
2023-02-12T03:17:45.310Z,77.19
2023-02-12T03:20:23.965Z,75.05
2023-02-12T03:22:59.790Z,75.50
2023-02-12T03:25:36.650Z,76.66
2023-02-12T03:28:08.659Z,78.31
2023-02-12T03:30:55.068Z,78.54
2023-02-12T03:33:38.308Z,79.69
2023-02-12T03:36:20.822Z,79.44
2023-02-12T03:38:54.818Z,77.37
2023-02-12T03:41:35.734Z,78.36
2023-02-12T03:44:16.317Z,78.80
2023-02-12T03:46:58.202Z,77.34
2023-02-12T03:49:33.336Z,77.45
2023-02-12T03:52:01.337Z,79.40
2023-02-12T03:54:29.258Z,77.78
2023-02-12T03:57:04.210Z,75.17
2023-02-12T03:59:32.456Z,73.89
2023-02-12T04:02:01.001Z,74.58
2023-02-12T04:04:31.858Z,75.96
2023-02-12T04:07:00.493Z,77.06
2023-02-12T04:09:32.170Z,77.98
2023-02-12T04:12:19.848Z,77.94
2023-02-12T04:14:56.160Z,78.55
2023-02-12T04:17:42.604Z,78.17
2023-02-12T04:20:28.132Z,77.52
2023-02-12T04:23:12.698Z,79.49
2023-02-12T04:25:57.944Z,77.31
2023-02-12T04:28:44.158Z,77.74
2023-02-12T04:31:25.164Z,77.78
2023-02-12T04:34:10.233Z,76.84
2023-02-12T04:36:50.328Z,78.82
2023-02-12T04:39:23.540Z,79.06
2023-02-12T04:41:52.401Z,79.45
2023-02-12T04:44:26.780Z,79.47
2023-02-12T04:46:55.145Z,79.88
2023-02-12T04:49:24.123Z,81.33
2023-02-12T04:51:53.776Z,81.38
2023-02-12T04:54:24.252Z,80.05
2023-02-12T04:56:52.707Z,78.71
2023-02-12T04:59:20.717Z,77.80
2023-02-12T05:01:48.950Z,76.30
2023-02-12T05:04:18.754Z,77.21
2023-02-12T05:06:47.730Z,78.04
2023-02-12T05:09:20.928Z,75.44
2023-02-12T05:11:49.228Z,75.90
2023-02-12T05:14:17.335Z,75.82
2023-02-12T05:16:45.377Z,76.08
2023-02-12T05:19:13.356Z,76.91
2023-02-12T05:21:41.368Z,76.12
2023-02-12T05:24:10.414Z,74.41
2023-02-12T05:26:43.871Z,73.16
2023-02-12T05:29:11.755Z,73.70
2023-02-12T05:31:42.746Z,74.38
2023-02-12T05:34:13.243Z,75.15
2023-02-12T05:36:41.393Z,77.74
2023-02-12T05:39:09.491Z,77.57
2023-02-12T05:41:37.473Z,78.19
2023-02-12T05:44:11.317Z,77.48
2023-02-12T05:46:42.297Z,76.64
2023-02-12T05:49:11.461Z,75.89
2023-02-12T05:51:41.336Z,75.44
2023-02-12T05:54:09.600Z,75.29
2023-02-12T05:56:43.088Z,74.31
2023-02-12T05:59:18.524Z,74.62
2023-02-12T06:01:49.223Z,75.18
2023-02-12T06:04:20.329Z,75.04
2023-02-12T06:06:48.479Z,74.47
2023-02-12T06:09:16.869Z,74.83
2023-02-12T06:11:45.381Z,75.02
2023-02-12T06:14:17.934Z,75.67
2023-02-12T06:16:47.797Z,75.65
2023-02-12T06:19:16.308Z,76.24
2023-02-12T06:21:44.296Z,76.83
2023-02-12T06:24:14.260Z,76.15
2023-02-12T06:26:42.428Z,76.28
2023-02-12T06:29:10.449Z,75.17
2023-02-12T06:31:44.518Z,74.81
2023-02-12T06:34:15.167Z,73.92
2023-02-12T06:36:45.610Z,73.06
2023-02-12T06:39:15.951Z,73.23
2023-02-12T06:41:44.627Z,73.39
2023-02-12T06:44:14.576Z,73.55
2023-02-12T06:46:44.181Z,73.63
2023-02-12T06:49:16.260Z,75.56
2023-02-12T06:51:44.318Z,75.20
2023-02-12T06:54:18.593Z,76.27
2023-02-12T06:56:46.751Z,75.42
2023-02-12T06:59:17.711Z,77.27
2023-02-12T07:01:47.085Z,75.76
2023-02-12T07:04:15.677Z,74.69
2023-02-12T07:06:43.672Z,75.03
2023-02-12T07:09:11.628Z,74.29
2023-02-12T07:11:39.922Z,75.03
2023-02-12T07:14:08.758Z,73.93
2023-02-12T07:16:36.804Z,74.48
2023-02-12T07:19:06.120Z,74.19
2023-02-12T07:21:34.418Z,75.50
2023-02-12T07:24:02.327Z,73.52
2023-02-12T07:26:30.321Z,72.86
2023-02-12T07:28:59.549Z,72.82
2023-02-12T07:31:27.573Z,73.48
2023-02-12T07:33:59.277Z,74.71
2023-02-12T07:36:32.855Z,73.60
2023-02-12T07:39:01.639Z,73.07
2023-02-12T07:41:32.424Z,74.10
2023-02-12T07:44:07.498Z,72.72
2023-02-12T07:46:39.714Z,71.88
2023-02-12T07:49:10.864Z,72.00
2023-02-12T07:51:40.238Z,72.08
2023-02-12T07:54:17.311Z,73.09
2023-02-12T07:56:47.633Z,72.80
2023-02-12T07:59:19.496Z,72.12
2023-02-12T08:01:49.823Z,73.35
2023-02-12T08:04:20.004Z,72.47
2023-02-12T08:06:53.605Z,72.39
2023-02-12T08:09:25.618Z,71.29
2023-02-12T08:11:53.641Z,71.29
2023-02-12T08:14:23.139Z,71.33
2023-02-12T08:16:52.743Z,70.83
2023-02-12T08:19:25.989Z,70.59
2023-02-12T08:21:58.685Z,70.63
2023-02-12T08:24:27.152Z,71.91
2023-02-12T08:26:55.269Z,73.31
2023-02-12T08:29:26.264Z,72.42
2023-02-12T08:31:59.551Z,72.27
2023-02-12T08:34:30.724Z,74.92
2023-02-12T08:37:01.349Z,75.01
2023-02-12T08:39:31.157Z,75.39
2023-02-12T08:42:01.487Z,74.36
2023-02-12T08:44:30.362Z,73.03
2023-02-12T08:46:58.498Z,73.32
2023-02-12T08:49:29.446Z,73.68
2023-02-12T08:52:01.841Z,73.64
2023-02-12T08:54:32.576Z,75.51
2023-02-12T08:57:02.912Z,74.84
2023-02-12T08:59:31.238Z,75.29
2023-02-12T09:02:00.513Z,75.91
2023-02-12T09:04:30.394Z,74.34
2023-02-12T09:06:59.843Z,76.21
2023-02-12T09:09:27.949Z,76.67
2023-02-12T09:11:55.923Z,75.59
2023-02-12T09:14:25.023Z,73.27
2023-02-12T09:16:54.634Z,71.65
2023-02-12T09:19:23.848Z,75.74
2023-02-12T09:21:55.706Z,75.32
2023-02-12T09:24:27.550Z,73.54
2023-02-12T09:26:55.720Z,75.45
2023-02-12T09:29:23.758Z,74.18
2023-02-12T09:31:51.828Z,74.68
2023-02-12T09:34:19.882Z,74.71
2023-02-12T09:36:47.971Z,74.98
2023-02-12T09:39:17.038Z,75.59
2023-02-12T09:42:26.720Z,73.20
2023-02-12T09:45:08.203Z,75.77
2023-02-12T09:47:45.957Z,75.45
2023-02-12T09:50:34.707Z,75.10
2023-02-12T09:53:03.702Z,75.81
2023-02-12T09:55:37.993Z,73.79
2023-02-12T09:58:18.106Z,73.80
2023-02-12T10:00:46.182Z,73.91
2023-02-12T10:03:17.601Z,73.12
2023-02-12T10:05:53.823Z,71.59
2023-02-12T10:09:02.293Z,73.22
2023-02-12T10:11:54.764Z,74.69
2023-02-12T10:14:53.093Z,75.25
2023-02-12T10:17:36.750Z,72.69
2023-02-12T10:20:41.923Z,73.31
2023-02-12T10:23:52.719Z,72.72
2023-02-12T10:26:27.591Z,73.01
2023-02-12T10:29:00.286Z,70.50
2023-02-12T10:31:36.019Z,71.26
2023-02-12T10:34:19.061Z,71.32
2023-02-12T10:36:49.633Z,71.05
2023-02-12T10:39:26.876Z,70.85
2023-02-12T10:42:03.578Z,70.05
2023-02-12T10:44:32.432Z,72.27
2023-02-12T10:47:02.677Z,72.16
2023-02-12T10:49:33.364Z,73.01
2023-02-12T10:52:14.305Z,69.25
2023-02-12T10:54:45.339Z,71.16
2023-02-12T10:57:49.011Z,68.81
2023-02-12T11:00:28.641Z,68.28
2023-02-12T11:03:24.664Z,67.84
2023-02-12T11:05:55.975Z,67.43
2023-02-12T11:08:34.785Z,67.01
2023-02-12T11:11:11.773Z,68.38
2023-02-12T11:13:48.936Z,67.69
2023-02-12T11:16:30.553Z,66.70
2023-02-12T11:19:06.277Z,66.23
2023-02-12T11:21:37.597Z,66.26
2023-02-12T11:24:42.053Z,65.93
2023-02-12T11:27:23.152Z,65.32
2023-02-12T11:30:16.422Z,65.60
2023-02-12T11:32:44.793Z,64.78
2023-02-12T11:35:24.093Z,64.92
2023-02-12T11:37:56.218Z,64.75
2023-02-12T11:40:27.502Z,64.82
2023-02-12T11:43:00.065Z,65.78
2023-02-12T11:45:35.461Z,63.54
2023-02-12T11:48:03.992Z,63.71
2023-02-12T11:50:35.680Z,63.13
2023-02-12T11:53:10.492Z,64.96
2023-02-12T11:55:42.444Z,63.05
2023-02-12T11:58:17.986Z,62.49
2023-02-12T12:00:53.725Z,62.90
2023-02-12T12:03:31.344Z,62.20
2023-02-12T12:06:09.220Z,61.54
2023-02-12T12:08:45.280Z,61.33
2023-02-12T12:11:20.987Z,64.59
2023-02-12T12:13:58.812Z,65.10
2023-02-12T12:16:52.581Z,64.31
2023-02-12T12:19:46.645Z,63.43
2023-02-12T12:22:31.444Z,61.97
2023-02-12T12:25:09.350Z,66.59
2023-02-12T12:28:05.554Z,64.06
2023-02-12T12:30:57.996Z,63.48
2023-02-12T12:33:40.835Z,62.94
2023-02-12T12:36:55.685Z,63.71
2023-02-12T12:39:34.328Z,64.23
2023-02-12T12:42:52.020Z,64.58
2023-02-12T12:45:50.458Z,63.78
2023-02-12T12:48:42.917Z,66.37
2023-02-12T12:51:28.113Z,65.33
2023-02-12T12:54:16.078Z,64.47
2023-02-12T12:57:03.913Z,63.74
2023-02-12T13:00:14.224Z,64.91
2023-02-12T13:03:34.120Z,62.85
2023-02-12T13:06:23.217Z,61.99
2023-02-12T13:09:23.651Z,61.90
2023-02-12T13:12:27.857Z,61.45
2023-02-12T13:15:09.619Z,61.84
2023-02-12T13:17:52.402Z,62.10
2023-02-12T13:20:32.570Z,61.29
2023-02-12T13:23:10.382Z,60.61
2023-02-12T13:25:49.101Z,61.26
2023-02-12T13:28:32.064Z,61.17
2023-02-12T13:31:09.489Z,61.48
2023-02-12T13:33:51.479Z,61.46
2023-02-12T13:36:19.752Z,61.01
2023-02-12T13:38:55.698Z,62.78
2023-02-12T13:41:39.398Z,62.96
2023-02-12T13:44:28.112Z,61.62
2023-02-12T13:47:07.837Z,62.06
2023-02-12T13:49:49.739Z,62.23
2023-02-12T13:52:32.822Z,64.00
2023-02-12T13:55:15.880Z,62.24
2023-02-12T13:57:43.799Z,64.73
2023-02-12T14:01:04.143Z,64.21
2023-02-12T14:03:50.465Z,64.33
2023-02-12T14:06:21.376Z,63.15
2023-02-12T14:09:08.283Z,63.47
2023-02-12T14:11:53.767Z,63.29
2023-02-12T14:14:31.187Z,63.46
2023-02-12T14:16:59.563Z,62.59
2023-02-12T14:20:06.164Z,61.95
2023-02-12T14:23:03.228Z,61.67
2023-02-12T14:25:40.880Z,63.62
2023-02-12T14:28:26.893Z,64.45
2023-02-12T14:31:37.974Z,65.73
2023-02-12T14:34:47.252Z,66.30
2023-02-12T14:37:38.122Z,64.59
2023-02-12T14:40:47.002Z,63.54
2023-02-12T14:43:33.548Z,64.41
2023-02-12T14:46:48.822Z,63.52
2023-02-12T14:49:28.125Z,64.21
2023-02-12T14:52:04.920Z,64.83
2023-02-12T14:54:42.248Z,64.82
2023-02-12T14:57:20.305Z,64.42
2023-02-12T14:59:50.804Z,64.14
2023-02-12T15:02:27.825Z,64.58
2023-02-12T15:05:02.702Z,65.80
2023-02-12T15:07:42.162Z,64.95
2023-02-12T15:10:18.658Z,63.60
2023-02-12T15:12:55.263Z,63.17
2023-02-12T15:15:30.803Z,63.35
2023-02-12T15:18:07.949Z,64.52
2023-02-12T15:20:51.741Z,63.85
2023-02-12T15:23:35.398Z,63.30
2023-02-12T15:26:06.025Z,67.95
2023-02-12T15:28:37.574Z,67.64
2023-02-12T15:31:10.748Z,65.26
2023-02-12T15:33:47.583Z,63.59
2023-02-12T15:36:21.942Z,64.18
2023-02-12T15:38:55.920Z,63.77
2023-02-12T15:41:39.821Z,62.65
2023-02-12T15:44:28.740Z,62.40
2023-02-12T15:47:13.410Z,64.18
2023-02-12T15:49:44.632Z,62.50
2023-02-12T15:52:20.777Z,63.18
2023-02-12T15:54:50.553Z,64.31
2023-02-12T15:57:25.081Z,62.92
2023-02-12T16:00:01.243Z,65.47
2023-02-12T16:02:33.145Z,63.99
2023-02-12T16:05:06.088Z,64.97
2023-02-12T16:07:40.298Z,66.78
2023-02-12T16:10:09.797Z,63.65
2023-02-12T16:12:42.681Z,65.85
2023-02-12T16:15:30.552Z,65.42
2023-02-12T16:18:04.157Z,64.68
2023-02-12T16:20:34.878Z,65.88
2023-02-12T16:23:08.543Z,65.11
2023-02-12T16:25:37.814Z,65.46
2023-02-12T16:28:09.045Z,65.85
2023-02-12T16:30:42.360Z,63.69
2023-02-12T16:33:35.834Z,64.01
2023-02-12T16:36:10.179Z,66.32
2023-02-12T16:38:47.419Z,64.10
2023-02-12T16:41:27.076Z,64.63
2023-02-12T16:44:31.511Z,62.79
2023-02-12T16:47:02.797Z,63.66
2023-02-12T16:49:30.966Z,62.52
2023-02-12T16:52:29.457Z,61.75
2023-02-12T16:54:57.449Z,62.40
2023-02-12T16:57:25.347Z,61.62
2023-02-12T16:59:53.419Z,63.32
2023-02-12T17:02:21.437Z,62.78
2023-02-12T17:04:49.424Z,61.50
2023-02-12T17:07:24.185Z,60.80
2023-02-12T17:09:52.267Z,61.21
2023-02-12T17:12:23.346Z,60.21
2023-02-12T17:14:51.578Z,61.32
2023-02-12T17:17:19.973Z,60.69
2023-02-12T17:19:47.936Z,59.43
2023-02-12T17:22:28.310Z,60.57
2023-02-12T17:24:56.435Z,59.93
2023-02-12T17:27:24.463Z,59.76
2023-02-12T17:29:54.455Z,60.92
2023-02-12T17:32:24.468Z,60.71
2023-02-12T17:34:55.725Z,60.63
2023-02-12T17:37:25.436Z,62.54
2023-02-12T17:39:56.222Z,63.68
2023-02-12T17:42:24.469Z,62.13
2023-02-12T17:44:53.495Z,60.57
2023-02-12T17:47:21.477Z,63.86
2023-02-12T17:49:49.376Z,62.74
2023-02-12T17:52:17.329Z,61.60
2023-02-12T17:54:46.649Z,61.30
2023-02-12T17:57:16.937Z,61.09
2023-02-12T17:59:44.888Z,61.50
2023-02-12T18:02:13.287Z,60.47
2023-02-12T18:04:45.869Z,60.38
2023-02-12T18:07:13.872Z,60.27
2023-02-12T18:09:41.852Z,60.01
2023-02-12T18:12:11.914Z,59.69
2023-02-12T18:14:44.347Z,59.58
2023-02-12T18:17:12.421Z,60.02
2023-02-12T18:19:42.922Z,59.45
2023-02-12T18:22:13.774Z,59.79
2023-02-12T18:24:43.930Z,60.82
2023-02-12T18:27:13.839Z,59.99
2023-02-12T18:29:43.737Z,59.72
2023-02-12T18:32:14.595Z,60.43
2023-02-12T18:34:43.704Z,59.96
2023-02-12T18:37:13.974Z,60.08
2023-02-12T18:39:42.126Z,60.68
2023-02-12T18:42:12.196Z,60.29
2023-02-12T18:44:43.691Z,59.90
2023-02-12T18:47:13.173Z,59.98
2023-02-12T18:49:46.112Z,60.55
2023-02-12T18:52:19.249Z,60.42
2023-02-12T18:54:58.358Z,59.90
2023-02-12T18:57:26.369Z,60.35
2023-02-12T18:59:56.323Z,60.10
2023-02-12T19:02:26.229Z,60.67
2023-02-12T19:04:54.379Z,60.32
2023-02-12T19:07:23.991Z,60.10
2023-02-12T19:09:54.045Z,60.85
2023-02-12T19:12:21.978Z,60.57
2023-02-12T19:15:00.318Z,60.51
2023-02-12T19:17:29.829Z,60.46
2023-02-12T19:20:01.805Z,61.14
2023-02-12T19:22:30.223Z,61.55
2023-02-12T19:24:58.133Z,61.40
2023-02-12T19:27:28.324Z,61.24
2023-02-12T19:29:58.012Z,62.69
2023-02-12T19:32:30.376Z,62.71
2023-02-12T19:35:10.998Z,64.26
2023-02-12T19:37:38.998Z,63.11
2023-02-12T19:40:17.237Z,62.74
2023-02-12T19:42:45.272Z,62.15
2023-02-12T19:45:13.304Z,61.93
2023-02-12T19:47:47.729Z,62.79
2023-02-12T19:50:18.590Z,62.04
2023-02-12T19:52:49.289Z,63.34
2023-02-12T19:55:22.336Z,62.84
2023-02-12T19:57:59.827Z,62.37
2023-02-12T20:00:31.498Z,62.56
2023-02-12T20:03:00.924Z,62.47
2023-02-12T20:05:29.110Z,61.95
2023-02-12T20:07:59.969Z,62.13
2023-02-12T20:10:27.913Z,62.92
2023-02-12T20:12:56.028Z,63.93
2023-02-12T20:15:26.806Z,63.60
2023-02-12T20:17:57.328Z,62.98
2023-02-12T20:20:26.720Z,62.77
2023-02-12T20:22:57.184Z,63.22
2023-02-12T20:25:31.366Z,62.84
2023-02-12T20:28:04.584Z,62.76
2023-02-12T20:30:32.531Z,62.62
2023-02-12T20:33:02.570Z,62.57
2023-02-12T20:35:33.017Z,63.47
2023-02-12T20:38:01.113Z,62.38
2023-02-12T20:40:29.185Z,61.71
2023-02-12T20:42:57.292Z,61.61
2023-02-12T20:45:28.257Z,61.68
2023-02-12T20:48:02.275Z,62.93
2023-02-12T20:50:31.789Z,63.17
2023-02-12T20:53:02.437Z,62.96
2023-02-12T20:55:30.420Z,62.74
2023-02-12T20:57:59.969Z,62.54
2023-02-12T21:00:28.097Z,62.67
2023-02-12T21:02:56.097Z,62.40
2023-02-12T21:05:24.534Z,61.51
2023-02-12T21:07:54.393Z,63.03
2023-02-12T21:10:23.207Z,62.19
2023-02-12T21:12:58.466Z,62.50
2023-02-12T21:15:27.690Z,62.21
2023-02-12T21:17:55.727Z,61.56
2023-02-12T21:20:23.641Z,62.96
2023-02-12T21:22:53.108Z,62.37
2023-02-12T21:25:21.088Z,62.16
2023-02-12T21:27:48.951Z,61.63
2023-02-12T21:30:17.736Z,63.17
2023-02-12T21:32:47.130Z,63.21
2023-02-12T21:35:15.417Z,64.10
2023-02-12T21:37:43.285Z,63.41
2023-02-12T21:40:13.807Z,63.10
2023-02-12T21:42:42.071Z,61.80
2023-02-12T21:45:10.861Z,61.94
2023-02-12T21:47:38.863Z,61.70
2023-02-12T21:50:08.549Z,61.93
2023-02-12T21:52:36.489Z,63.16
2023-02-12T21:55:04.380Z,64.68
2023-02-12T21:57:33.642Z,63.49
2023-02-12T22:00:02.848Z,62.86
2023-02-12T22:02:30.773Z,62.23
2023-02-12T22:04:58.668Z,61.78
2023-02-12T22:07:26.632Z,62.22
2023-02-12T22:09:56.899Z,64.74
2023-02-12T22:12:24.681Z,65.30
2023-02-12T22:14:54.028Z,65.47
2023-02-12T22:17:21.960Z,64.92
2023-02-12T22:19:49.947Z,63.96
2023-02-12T22:22:17.976Z,63.62
2023-02-12T22:24:45.971Z,64.54
2023-02-12T22:27:14.187Z,63.36
2023-02-12T22:29:42.185Z,62.56
2023-02-12T22:32:12.615Z,63.04
2023-02-12T22:34:41.979Z,63.32
2023-02-12T22:37:09.814Z,63.81
2023-02-12T22:39:37.663Z,64.78
2023-02-12T22:42:05.926Z,65.15
2023-02-12T22:44:33.961Z,65.27
2023-02-12T22:47:02.376Z,62.98
2023-02-12T22:49:31.806Z,62.99
2023-02-12T22:51:59.719Z,62.88
2023-02-12T22:54:27.584Z,62.84
2023-02-12T22:56:55.690Z,62.59
2023-02-12T22:59:23.614Z,62.59
2023-02-12T23:01:51.513Z,62.56
2023-02-12T23:04:20.355Z,62.08
2023-02-12T23:06:51.164Z,61.93
2023-02-12T23:09:19.782Z,62.29
2023-02-12T23:11:48.713Z,62.46
2023-02-12T23:14:17.017Z,62.48
2023-02-12T23:16:45.092Z,62.22
2023-02-12T23:19:13.711Z,62.41
2023-02-12T23:21:42.144Z,62.44
2023-02-12T23:24:15.196Z,63.02
2023-02-12T23:26:43.333Z,62.66
2023-02-12T23:29:11.628Z,63.15
2023-02-12T23:31:39.923Z,64.28
2023-02-12T23:34:08.131Z,64.05
2023-02-12T23:36:36.268Z,66.42
2023-02-12T23:39:05.778Z,68.07
2023-02-12T23:41:35.214Z,66.95
2023-02-12T23:44:03.099Z,67.54
2023-02-12T23:46:31.714Z,68.17
2023-02-12T23:48:59.623Z,66.74
2023-02-12T23:51:27.834Z,65.95
2023-02-12T23:53:56.121Z,66.46
2023-02-12T23:56:24.581Z,66.91
2023-02-12T23:58:56.817Z,67.10
